createdAt,value
2018-12-11T00:00:11.216Z,940.7
2018-12-11T00:01:12.448Z,940.72
2018-12-11T00:02:12.846Z,940.73
2018-12-11T00:03:13.520Z,940.7
2018-12-11T00:04:14.637Z,940.71
2018-12-11T00:05:15.085Z,940.71
2018-12-11T00:06:15.763Z,940.75
2018-12-11T00:07:16.592Z,940.69
2018-12-11T00:08:17.713Z,940.73
2018-12-11T00:09:18.388Z,940.76
2018-12-11T00:10:19.509Z,940.68
2018-12-11T00:11:19.906Z,940.69
2018-12-11T00:12:21.133Z,940.7
2018-12-11T00:13:22.533Z,940.71
2018-12-11T00:14:22.930Z,940.73
2018-12-11T00:15:24.325Z,940.69
2018-12-11T00:16:24.999Z,940.71
2018-12-11T00:17:25.553Z,940.71
2018-12-11T00:18:26.234Z,940.72
2018-12-11T00:19:26.960Z,940.69
2018-12-11T00:20:27.883Z,940.7
2018-12-11T00:21:28.283Z,940.71
2018-12-11T00:22:29.301Z,940.73
2018-12-11T00:23:29.699Z,940.66
2018-12-11T00:24:30.824Z,940.63
2018-12-11T00:25:31.496Z,940.62
2018-12-11T00:26:32.172Z,940.64
2018-12-11T00:27:32.965Z,940.7
2018-12-11T00:28:33.363Z,940.74
2018-12-11T00:29:34.486Z,940.71
2018-12-11T00:30:34.884Z,940.68
2018-12-11T00:31:35.283Z,940.65
2018-12-11T00:32:35.680Z,940.69
2018-12-11T00:33:36.634Z,940.68
2018-12-11T00:34:37.309Z,940.77
2018-12-11T00:35:37.986Z,940.75
2018-12-11T00:36:38.659Z,940.7
2018-12-11T00:37:39.479Z,940.73
2018-12-11T00:38:40.152Z,940.72
2018-12-11T00:39:40.830Z,940.71
2018-12-11T00:40:41.232Z,940.65
2018-12-11T00:41:41.907Z,940.71
2018-12-11T00:42:42.581Z,940.66
2018-12-11T00:43:43.705Z,940.7
2018-12-11T00:44:44.387Z,940.66
2018-12-11T00:45:45.062Z,940.69
2018-12-11T00:46:45.848Z,940.7
2018-12-11T00:47:47.312Z,940.69
2018-12-11T00:48:47.823Z,940.71
2018-12-11T00:49:48.498Z,940.65
2018-12-11T00:50:49.450Z,940.68
2018-12-11T00:51:49.857Z,940.68
2018-12-11T00:52:50.540Z,940.61
2018-12-11T00:53:51.213Z,940.65
2018-12-11T00:54:51.888Z,940.68
2018-12-11T00:55:52.396Z,940.68
2018-12-11T00:56:53.354Z,940.64
2018-12-11T00:57:54.425Z,940.63
2018-12-11T00:58:55.569Z,940.6
2018-12-11T00:59:56.243Z,940.64
2018-12-11T01:00:57.366Z,940.64
2018-12-11T01:01:58.321Z,940.66
2018-12-11T01:02:58.722Z,940.62
2018-12-11T01:03:59.401Z,940.67
2018-12-11T01:04:59.849Z,940.71
2018-12-11T01:06:00.252Z,940.73
2018-12-11T01:07:00.758Z,940.76
2018-12-11T01:08:01.277Z,940.72
2018-12-11T01:09:02.407Z,940.7
2018-12-11T01:10:03.076Z,940.72
2018-12-11T01:11:03.477Z,940.71
2018-12-11T01:12:03.872Z,940.74
2018-12-11T01:13:04.273Z,940.73
2018-12-11T01:14:05.389Z,940.68
2018-12-11T01:15:06.341Z,940.73
2018-12-11T01:16:06.570Z,940.74
2018-12-11T01:17:07.029Z,940.74
2018-12-11T01:18:08.103Z,940.71
2018-12-11T01:19:08.549Z,940.77
2018-12-11T01:20:08.944Z,940.78
2018-12-11T01:21:09.624Z,940.76
2018-12-11T01:22:10.599Z,940.81
2018-12-11T01:23:11.716Z,940.79
2018-12-11T01:24:12.115Z,940.85
2018-12-11T01:25:24.895Z,940.81
2018-12-11T01:26:25.722Z,940.87
2018-12-11T01:27:26.400Z,940.86
2018-12-11T01:28:27.130Z,940.83
2018-12-11T01:29:27.807Z,940.79
2018-12-11T01:30:28.934Z,940.82
2018-12-11T01:31:29.335Z,940.84
2018-12-11T01:32:30.014Z,940.86
2018-12-11T01:33:31.139Z,940.84
2018-12-11T01:34:31.540Z,940.87
2018-12-11T01:35:31.946Z,940.86
2018-12-11T01:36:33.027Z,940.84
2018-12-11T01:37:33.430Z,940.86
2018-12-11T01:38:33.878Z,940.85
2018-12-11T01:39:34.282Z,940.83
2018-12-11T01:40:34.964Z,940.83
2018-12-11T01:41:35.644Z,940.83
2018-12-11T01:42:36.326Z,940.86
2018-12-11T01:43:37.451Z,940.82
2018-12-11T01:44:38.406Z,940.83
2018-12-11T01:45:39.087Z,940.86
2018-12-11T01:46:39.336Z,940.83
2018-12-11T01:47:40.320Z,940.84
2018-12-11T01:48:41.000Z,940.78
2018-12-11T01:49:41.237Z,940.8
2018-12-11T01:50:41.916Z,940.82
2018-12-11T01:51:42.317Z,940.82
2018-12-11T01:52:42.995Z,940.79
2018-12-11T01:53:43.673Z,940.8
2018-12-11T01:54:44.635Z,940.82
2018-12-11T01:55:45.875Z,940.79
2018-12-11T01:56:47.022Z,940.8
2018-12-11T01:57:47.428Z,940.78
2018-12-11T01:58:47.833Z,940.78
2018-12-11T01:59:48.067Z,940.81
2018-12-11T02:00:48.470Z,940.8
2018-12-11T02:01:49.427Z,940.78
2018-12-11T02:02:50.162Z,940.78
2018-12-11T02:03:50.846Z,940.75
2018-12-11T02:04:51.580Z,940.78
2018-12-11T02:05:52.701Z,940.78
2018-12-11T02:06:53.507Z,940.75
2018-12-11T02:07:54.463Z,940.75
2018-12-11T02:08:54.939Z,940.73
2018-12-11T02:09:55.906Z,940.69
2018-12-11T02:10:56.424Z,940.7
2018-12-11T02:11:57.104Z,940.68
2018-12-11T02:12:57.785Z,940.73
2018-12-11T02:13:58.743Z,940.7
2018-12-11T02:14:59.424Z,940.71
2018-12-11T02:16:00.383Z,940.74
2018-12-11T02:17:00.760Z,940.71
2018-12-11T02:18:01.163Z,940.69
2018-12-11T02:19:02.123Z,940.64
2018-12-11T02:20:02.801Z,940.66
2018-12-11T02:21:03.203Z,940.64
2018-12-11T02:22:04.601Z,940.68
2018-12-11T02:23:05.010Z,940.65
2018-12-11T02:24:05.966Z,940.66
2018-12-11T02:25:06.385Z,940.67
2018-12-11T02:26:06.923Z,940.65
2018-12-11T02:27:08.032Z,940.69
2018-12-11T02:28:09.269Z,940.68
2018-12-11T02:29:09.673Z,940.63
2018-12-11T02:30:10.630Z,940.65
2018-12-11T02:31:11.309Z,940.61
2018-12-11T02:32:12.546Z,940.64
2018-12-11T02:33:13.512Z,940.58
2018-12-11T02:34:13.751Z,940.63
2018-12-11T02:35:14.267Z,940.64
2018-12-11T02:36:15.509Z,940.66
2018-12-11T02:37:16.623Z,940.63
2018-12-11T02:38:17.657Z,940.71
2018-12-11T02:39:18.791Z,940.7
2018-12-11T02:40:19.765Z,940.68
2018-12-11T02:41:20.288Z,940.65
2018-12-11T02:42:20.528Z,940.58
2018-12-11T02:43:21.499Z,940.64
2018-12-11T02:44:22.298Z,940.65
2018-12-11T02:45:22.979Z,940.63
2018-12-11T02:46:23.495Z,940.68
2018-12-11T02:47:24.411Z,940.65
2018-12-11T02:48:24.648Z,940.7
2018-12-11T02:49:25.648Z,940.68
2018-12-11T02:50:26.343Z,940.67
2018-12-11T02:51:26.856Z,940.67
2018-12-11T02:52:27.686Z,940.67
2018-12-11T02:53:28.647Z,940.71
2018-12-11T02:54:29.675Z,940.71
2018-12-11T02:55:30.645Z,940.8
2018-12-11T02:56:31.325Z,940.72
2018-12-11T02:57:32.007Z,940.72
2018-12-11T02:58:32.967Z,940.72
2018-12-11T02:59:33.662Z,940.74
2018-12-11T03:00:34.342Z,940.71
2018-12-11T03:01:34.589Z,940.74
2018-12-11T03:02:35.545Z,940.76
2018-12-11T03:03:35.974Z,940.79
2018-12-11T03:04:37.043Z,940.79
2018-12-11T03:05:38.289Z,940.81
2018-12-11T03:06:38.988Z,940.82
2018-12-11T03:07:39.460Z,940.78
2018-12-11T03:08:40.419Z,940.81
2018-12-11T03:09:40.681Z,940.83
2018-12-11T03:10:41.644Z,940.83
2018-12-11T03:11:42.606Z,940.86
2018-12-11T03:12:43.119Z,940.88
2018-12-11T03:13:43.812Z,940.88
2018-12-11T03:14:44.503Z,940.89
2018-12-11T03:15:45.186Z,940.86
2018-12-11T03:16:46.160Z,940.88
2018-12-11T03:17:47.315Z,940.88
2018-12-11T03:18:47.840Z,940.89
2018-12-11T03:19:48.078Z,940.87
2018-12-11T03:20:48.592Z,940.93
2018-12-11T03:21:48.890Z,940.94
2018-12-11T03:22:49.247Z,940.9
2018-12-11T03:23:50.215Z,940.97
2018-12-11T03:24:50.898Z,940.94
2018-12-11T03:25:51.576Z,940.88
2018-12-11T03:26:52.366Z,940.89
2018-12-11T03:27:53.498Z,940.92
2018-12-11T03:28:53.921Z,940.93
2018-12-11T03:29:54.895Z,940.95
2018-12-11T03:30:56.153Z,940.97
2018-12-11T03:31:57.113Z,940.98
2018-12-11T03:32:57.810Z,940.97
2018-12-11T03:33:58.910Z,941
2018-12-11T03:34:59.431Z,940.99
2018-12-11T03:35:59.697Z,940.96
2018-12-11T03:37:00.648Z,940.96
2018-12-11T03:38:01.580Z,940.96
2018-12-11T03:39:02.348Z,941.02
2018-12-11T03:40:03.307Z,941.02
2018-12-11T03:41:04.431Z,941.07
2018-12-11T03:42:05.111Z,941.05
2018-12-11T03:43:05.348Z,941.08
2018-12-11T03:44:06.309Z,941.06
2018-12-11T03:45:07.622Z,941.05
2018-12-11T03:46:08.582Z,941.08
2018-12-11T03:47:09.543Z,941.07
2018-12-11T03:48:10.181Z,941.08
2018-12-11T03:49:11.307Z,941.13
2018-12-11T03:50:12.438Z,941.15
2018-12-11T03:51:12.678Z,941.15
2018-12-11T03:52:13.364Z,941.13
2018-12-11T03:52:25.114Z,941.1
2018-12-11T03:53:25.671Z,941.11
2018-12-11T03:54:26.634Z,941.08
2018-12-11T03:55:27.319Z,941.02
2018-12-11T03:56:28.104Z,941.05
2018-12-11T03:57:29.375Z,941.01
2018-12-11T03:58:30.780Z,941.01
2018-12-11T03:59:31.748Z,940.96
2018-12-11T04:00:32.085Z,940.95
2018-12-11T04:01:32.765Z,941.02
2018-12-11T04:02:33.734Z,940.98
2018-12-11T04:03:34.910Z,940.96
2018-12-11T04:04:35.590Z,940.99
2018-12-11T04:05:36.594Z,941
2018-12-11T04:06:37.555Z,941
2018-12-11T04:07:38.805Z,941.04
2018-12-11T04:08:39.766Z,941.03
2018-12-11T04:09:40.459Z,941.03
2018-12-11T04:10:40.699Z,940.96
2018-12-11T04:11:40.942Z,941.01
2018-12-11T04:12:41.624Z,941.02
2018-12-11T04:13:42.719Z,940.98
2018-12-11T04:14:44.018Z,940.98
2018-12-11T04:15:44.254Z,941
2018-12-11T04:16:45.097Z,940.94
2018-12-11T04:17:45.499Z,940.92
2018-12-11T04:18:46.466Z,940.94
2018-12-11T04:19:49.084Z,940.88
2018-12-11T04:20:50.050Z,940.93
2018-12-11T04:21:50.463Z,940.92
2018-12-11T04:22:51.715Z,940.9
2018-12-11T04:23:52.381Z,940.92
2018-12-11T04:24:53.061Z,940.87
2018-12-11T04:25:53.739Z,940.88
2018-12-11T04:26:54.419Z,940.89
2018-12-11T04:27:55.378Z,940.92
2018-12-11T04:28:55.618Z,940.87
2018-12-11T04:29:56.304Z,940.87
2018-12-11T04:30:57.012Z,940.91
2018-12-11T04:31:57.419Z,940.9
2018-12-11T04:32:58.110Z,940.92
2018-12-11T04:33:59.498Z,940.88
2018-12-11T04:35:00.187Z,940.9
2018-12-11T04:36:01.429Z,940.91
2018-12-11T04:37:01.845Z,940.89
2018-12-11T04:38:02.802Z,940.89
2018-12-11T04:39:03.763Z,940.9
2018-12-11T04:40:04.167Z,940.9
2018-12-11T04:41:04.844Z,940.93
2018-12-11T04:42:05.090Z,940.91
2018-12-11T04:43:05.496Z,940.89
2018-12-11T04:44:06.607Z,940.91
2018-12-11T04:45:07.124Z,940.89
2018-12-11T04:46:07.819Z,940.84
2018-12-11T04:47:08.505Z,940.86
2018-12-11T04:48:09.327Z,940.85
2018-12-11T04:49:10.449Z,940.85
2018-12-11T04:50:11.409Z,940.87
2018-12-11T04:51:12.090Z,940.88
2018-12-11T04:52:12.492Z,940.83
2018-12-11T04:53:12.956Z,940.87
2018-12-11T04:54:13.611Z,940.9
2018-12-11T04:55:14.288Z,940.93
2018-12-11T04:56:14.691Z,940.92
2018-12-11T04:57:15.371Z,940.92
2018-12-11T04:58:16.333Z,940.92
2018-12-11T04:59:17.294Z,940.92
2018-12-11T05:00:17.974Z,940.91
2018-12-11T05:01:18.374Z,940.96
2018-12-11T05:02:19.057Z,940.97
2018-12-11T05:03:19.741Z,941.04
2018-12-11T05:04:20.593Z,941.01
2018-12-11T05:05:21.274Z,941.07
2018-12-11T05:06:21.679Z,941.08
2018-12-11T05:07:22.643Z,941.05
2018-12-11T05:08:23.324Z,941.01
2018-12-11T05:09:24.447Z,941.07
2018-12-11T05:10:25.131Z,941.03
2018-12-11T05:11:26.091Z,941.07
2018-12-11T05:12:26.768Z,941.05
2018-12-11T05:13:27.497Z,941.02
2018-12-11T05:14:28.033Z,941.03
2018-12-11T05:15:28.712Z,941.04
2018-12-11T05:16:29.114Z,941
2018-12-11T05:17:30.237Z,940.98
2018-12-11T05:18:30.946Z,941
2018-12-11T05:19:31.904Z,940.96
2018-12-11T05:20:32.077Z,940.97
2018-12-11T05:21:32.755Z,940.97
2018-12-11T05:22:33.880Z,940.9
2018-12-11T05:23:34.280Z,940.9
2018-12-11T05:24:35.378Z,940.95
2018-12-11T05:25:36.057Z,940.91
2018-12-11T05:26:36.458Z,940.91
2018-12-11T05:27:37.156Z,940.9
2018-12-11T05:28:37.835Z,940.84
2018-12-11T05:29:38.789Z,940.86
2018-12-11T05:30:39.911Z,940.91
2018-12-11T05:31:40.870Z,940.85
2018-12-11T05:32:41.995Z,940.87
2018-12-11T05:33:43.127Z,940.87
2018-12-11T05:34:43.513Z,940.86
2018-12-11T05:35:43.747Z,940.85
2018-12-11T05:36:44.224Z,940.85
2018-12-11T05:37:44.633Z,940.85
2018-12-11T05:38:45.753Z,940.85
2018-12-11T05:39:46.876Z,940.91
2018-12-11T05:40:48.001Z,940.93
2018-12-11T05:41:48.410Z,940.85
2018-12-11T05:42:48.979Z,940.87
2018-12-11T05:43:49.661Z,940.88
2018-12-11T05:44:50.495Z,940.84
2018-12-11T05:45:51.465Z,940.81
2018-12-11T05:46:52.144Z,940.81
2018-12-11T05:47:52.828Z,940.79
2018-12-11T05:48:53.511Z,940.78
2018-12-11T05:49:54.644Z,940.76
2018-12-11T05:50:55.051Z,940.75
2018-12-11T05:51:56.013Z,940.81
2018-12-11T05:52:56.425Z,940.83
2018-12-11T05:53:57.163Z,940.87
2018-12-11T05:54:57.842Z,940.91
2018-12-11T05:55:59.015Z,941
2018-12-11T05:57:00.273Z,941.05
2018-12-11T05:58:00.976Z,941.04
2018-12-11T05:59:02.052Z,941.07
2018-12-11T06:00:02.491Z,941.06
2018-12-11T06:01:02.893Z,941.09
2018-12-11T06:02:03.293Z,941.1
2018-12-11T06:03:04.085Z,941.11
2018-12-11T06:04:04.766Z,941.12
2018-12-11T06:05:05.017Z,941.14
2018-12-11T06:06:05.255Z,941.12
2018-12-11T06:07:06.383Z,941.13
2018-12-11T06:08:06.785Z,941.13
2018-12-11T06:09:07.803Z,941.15
2018-12-11T06:10:09.040Z,941.07
2018-12-11T06:11:09.720Z,941.06
2018-12-11T06:12:10.121Z,941.02
2018-12-11T06:13:11.078Z,941
2018-12-11T06:14:11.307Z,941.02
2018-12-11T06:15:12.391Z,941
2018-12-11T06:16:13.350Z,941.03
2018-12-11T06:17:13.754Z,941.01
2018-12-11T06:18:14.434Z,940.96
2018-12-11T06:19:15.149Z,941
2018-12-11T06:20:15.547Z,940.96
2018-12-11T06:21:16.675Z,940.97
2018-12-11T06:22:17.358Z,941.01
2018-12-11T06:23:18.481Z,940.96
2018-12-11T06:24:19.440Z,940.89
2018-12-11T06:25:20.520Z,940.99
2018-12-11T06:26:21.496Z,940.9
2018-12-11T06:27:22.166Z,940.86
2018-12-11T06:28:22.402Z,940.93
2018-12-11T06:29:23.151Z,940.87
2018-12-11T06:30:23.555Z,940.92
2018-12-11T06:31:24.518Z,940.89
2018-12-11T06:32:25.198Z,940.93
2018-12-11T06:33:26.158Z,940.92
2018-12-11T06:34:27.287Z,940.92
2018-12-11T06:35:28.428Z,940.89
2018-12-11T06:36:29.554Z,940.95
2018-12-11T06:37:30.244Z,940.91
2018-12-11T06:38:30.926Z,940.83
2018-12-11T06:39:31.887Z,940.92
2018-12-11T06:40:32.291Z,940.89
2018-12-11T06:41:33.253Z,940.86
2018-12-11T06:42:34.379Z,940.88
2018-12-11T06:43:35.342Z,940.88
2018-12-11T06:44:36.023Z,940.88
2018-12-11T06:45:36.890Z,940.84
2018-12-11T06:46:37.312Z,940.86
2018-12-11T06:47:37.716Z,940.81
2018-12-11T06:48:38.120Z,940.86
2018-12-11T06:49:39.079Z,940.87
2018-12-11T06:50:40.038Z,940.9
2018-12-11T06:51:41.165Z,940.89
2018-12-11T06:52:41.846Z,940.9
2018-12-11T06:53:42.251Z,940.87
2018-12-11T06:54:43.876Z,940.89
2018-12-11T06:55:45.128Z,940.89
2018-12-11T06:56:46.389Z,940.94
2018-12-11T06:57:46.934Z,940.86
2018-12-11T06:58:47.705Z,940.92
2018-12-11T06:59:48.044Z,940.89
2018-12-11T07:00:48.824Z,940.86
2018-12-11T07:01:49.326Z,940.92
2018-12-11T07:02:50.015Z,940.91
2018-12-11T07:03:50.743Z,940.86
2018-12-11T07:04:50.973Z,940.9
2018-12-11T07:05:52.343Z,940.85
2018-12-11T07:06:52.753Z,940.96
2018-12-11T07:07:53.736Z,940.85
2018-12-11T07:08:54.431Z,940.92
2018-12-11T07:09:55.242Z,940.89
2018-12-11T07:10:55.926Z,940.97
2018-12-11T07:11:56.397Z,940.96
2018-12-11T07:12:57.083Z,940.93
2018-12-11T07:13:57.789Z,940.95
2018-12-11T07:14:58.197Z,940.95
2018-12-11T07:15:59.071Z,940.94
2018-12-11T07:16:59.330Z,940.93
2018-12-11T07:17:59.796Z,940.92
2018-12-11T07:19:00.035Z,940.97
2018-12-11T07:20:00.444Z,940.89
2018-12-11T07:21:01.412Z,940.94
2018-12-11T07:22:02.605Z,940.91
2018-12-11T07:23:03.571Z,940.93
2018-12-11T07:24:04.250Z,940.92
2018-12-11T07:25:04.668Z,940.93
2018-12-11T07:26:05.769Z,940.96
2018-12-11T07:27:06.456Z,940.94
2018-12-11T07:28:07.862Z,940.96
2018-12-11T07:29:08.273Z,940.89
2018-12-11T07:30:08.704Z,940.88
2018-12-11T07:31:09.150Z,940.85
2018-12-11T07:32:09.914Z,940.89
2018-12-11T07:33:10.597Z,940.88
2018-12-11T07:34:11.556Z,940.9
2018-12-11T07:35:12.657Z,940.93
2018-12-11T07:36:13.479Z,941.01
2018-12-11T07:37:14.443Z,941.06
2018-12-11T07:38:14.846Z,941.01
2018-12-11T07:39:15.255Z,941.08
2018-12-11T07:40:16.022Z,941.12
2018-12-11T07:41:16.998Z,941.13
2018-12-11T07:42:17.541Z,941.2
2018-12-11T07:43:18.218Z,941.12
2018-12-11T07:44:18.899Z,941.09
2018-12-11T07:45:19.188Z,941.12
2018-12-11T07:46:19.748Z,941.11
2018-12-11T07:47:20.151Z,941.11
2018-12-11T07:48:21.280Z,941.13
2018-12-11T07:49:21.683Z,941.09
2018-12-11T07:50:22.404Z,941.11
2018-12-11T07:51:23.528Z,941.12
2018-12-11T07:52:24.657Z,941.07
2018-12-11T07:53:25.060Z,941.03
2018-12-11T07:54:25.485Z,941.04
2018-12-11T07:55:26.113Z,941.03
2018-12-11T07:56:27.156Z,941.13
2018-12-11T07:57:28.131Z,941.04
2018-12-11T07:58:28.540Z,941.03
2018-12-11T07:59:28.945Z,941.05
2018-12-11T08:00:29.663Z,941.07
2018-12-11T08:01:29.865Z,941.08
2018-12-11T08:02:30.093Z,941.09
2018-12-11T08:03:31.223Z,941.07
2018-12-11T08:04:32.346Z,941.1
2018-12-11T08:05:32.864Z,941.09
2018-12-11T08:06:33.402Z,941.1
2018-12-11T08:07:33.817Z,941.08
2018-12-11T08:08:34.234Z,941.08
2018-12-11T08:09:35.361Z,941.07
2018-12-11T08:10:36.841Z,941.1
2018-12-11T08:11:37.981Z,941.14
2018-12-11T08:12:38.941Z,941.03
2018-12-11T08:13:39.352Z,941.03
2018-12-11T08:14:39.831Z,941.05
2018-12-11T08:15:40.239Z,941.06
2018-12-11T08:16:40.504Z,941.06
2018-12-11T08:17:41.184Z,941.06
2018-12-11T08:18:42.313Z,941.08
2018-12-11T08:19:42.564Z,941.11
2018-12-11T08:20:42.894Z,941.06
2018-12-11T08:21:43.934Z,941.06
2018-12-11T08:22:44.345Z,941.08
2018-12-11T08:23:45.027Z,941.12
2018-12-11T08:24:45.433Z,941.15
2018-12-11T08:25:45.900Z,941.13
2018-12-11T08:26:46.718Z,941.17
2018-12-11T08:27:47.129Z,941.18
2018-12-11T08:28:47.810Z,941.21
2018-12-11T08:29:48.969Z,941.25
2018-12-11T08:30:50.111Z,941.25
2018-12-11T08:31:50.514Z,941.29
2018-12-11T08:32:51.199Z,941.31
2018-12-11T08:33:51.610Z,941.34
2018-12-11T08:34:53.206Z,941.34
2018-12-11T08:35:53.724Z,941.37
2018-12-11T08:36:54.840Z,941.41
2018-12-11T08:37:55.433Z,941.38
2018-12-11T08:38:56.048Z,941.39
2018-12-11T08:39:57.069Z,941.38
2018-12-11T08:40:57.479Z,941.38
2018-12-11T08:41:58.166Z,941.36
2018-12-11T08:42:59.294Z,941.29
2018-12-11T08:43:59.702Z,941.27
2018-12-11T08:45:00.667Z,941.35
2018-12-11T08:46:01.669Z,941.39
2018-12-11T08:47:02.387Z,941.34
2018-12-11T08:48:02.794Z,941.33
2018-12-11T08:49:03.211Z,941.36
2018-12-11T08:50:04.171Z,941.34
2018-12-11T08:51:06.230Z,941.34
2018-12-11T08:52:06.888Z,941.38
2018-12-11T08:53:08.073Z,941.36
2018-12-11T08:54:08.477Z,941.37
2018-12-11T08:55:09.608Z,941.39
2018-12-11T08:56:10.014Z,941.33
2018-12-11T08:57:11.408Z,941.4
2018-12-11T08:58:11.816Z,941.39
2018-12-11T08:59:12.233Z,941.44
2018-12-11T09:00:12.643Z,941.45
2018-12-11T09:01:13.607Z,941.49
2018-12-11T09:02:14.739Z,941.49
2018-12-11T09:03:16.147Z,941.46
2018-12-11T09:04:16.841Z,941.46
2018-12-11T09:05:17.363Z,941.42
2018-12-11T09:06:17.892Z,941.41
2018-12-11T09:07:18.495Z,941.4
2018-12-11T09:08:18.848Z,941.43
2018-12-11T09:09:19.982Z,941.44
2018-12-11T09:10:21.008Z,941.42
2018-12-11T09:11:21.278Z,941.47
2018-12-11T09:12:22.519Z,941.52
2018-12-11T09:13:23.652Z,941.54
2018-12-11T09:14:24.335Z,941.54
2018-12-11T09:15:25.579Z,941.56
2018-12-11T09:16:26.548Z,941.53
2018-12-11T09:17:27.081Z,941.59
2018-12-11T09:18:27.773Z,941.6
2018-12-11T09:19:28.458Z,941.54
2018-12-11T09:20:29.700Z,941.57
2018-12-11T09:21:30.389Z,941.59
2018-12-11T09:22:30.804Z,941.55
2018-12-11T09:23:32.223Z,941.56
2018-12-11T09:24:33.227Z,941.57
2018-12-11T09:25:34.239Z,941.5
2018-12-11T09:26:34.651Z,941.55
2018-12-11T09:27:35.567Z,941.59
2018-12-11T09:28:37.114Z,941.5
2018-12-11T09:29:37.953Z,941.48
2018-12-11T09:30:39.823Z,941.51
2018-12-11T09:31:41.138Z,941.5
2018-12-11T09:32:42.490Z,941.46
2018-12-11T09:33:43.618Z,941.51
2018-12-11T09:34:43.402Z,941.5
2018-12-11T09:35:44.322Z,941.55
2018-12-11T09:36:45.011Z,941.47
2018-12-11T09:37:45.574Z,941.49
2018-12-11T09:38:46.540Z,941.49
2018-12-11T09:39:47.507Z,941.47
2018-12-11T09:40:48.483Z,941.5
2018-12-11T09:41:49.165Z,941.5
2018-12-11T09:42:50.579Z,941.5
2018-12-11T09:43:51.981Z,941.58
2018-12-11T09:44:52.383Z,941.53
2018-12-11T09:45:52.844Z,941.5
2018-12-11T09:46:53.738Z,941.47
2018-12-11T09:47:54.558Z,941.49
2018-12-11T09:48:55.691Z,941.48
2018-12-11T09:49:56.378Z,941.45
2018-12-11T09:50:57.514Z,941.48
2018-12-11T09:51:58.922Z,941.49
2018-12-11T09:52:59.385Z,941.44
2018-12-11T09:54:00.066Z,941.45
2018-12-11T09:55:01.029Z,941.4
2018-12-11T09:56:02.023Z,941.43
2018-12-11T09:57:02.710Z,941.45
2018-12-11T09:58:03.871Z,941.43
2018-12-11T09:59:04.578Z,941.49
2018-12-11T10:00:04.825Z,941.46
2018-12-11T10:01:06.249Z,941.46
2018-12-11T10:02:07.138Z,941.45
2018-12-11T10:03:07.828Z,941.47
2018-12-11T10:04:08.959Z,941.42
2018-12-11T10:05:10.089Z,941.48
2018-12-11T10:06:11.219Z,941.49
2018-12-11T10:07:13.663Z,941.47
2018-12-11T10:08:14.076Z,941.45
2018-12-11T10:09:14.535Z,941.43
2018-12-11T10:10:14.943Z,941.41
2018-12-11T10:11:15.631Z,941.41
2018-12-11T10:12:16.313Z,941.42
2018-12-11T10:13:17.446Z,941.38
2018-12-11T10:14:17.862Z,941.32
2018-12-11T10:15:18.733Z,941.28
2018-12-11T10:16:19.418Z,941.28
2018-12-11T10:17:20.103Z,941.27
2018-12-11T10:18:20.992Z,941.27
2018-12-11T10:19:22.123Z,941.3
2018-12-11T10:20:23.366Z,941.28
2018-12-11T10:21:23.780Z,941.26
2018-12-11T10:22:24.185Z,941.22
2018-12-11T10:23:24.605Z,941.22
2018-12-11T10:23:36.666Z,941.21
2018-12-11T10:24:37.689Z,941.26
2018-12-11T10:24:48.912Z,941.23
2018-12-11T10:25:50.585Z,941.26
2018-12-11T10:26:51.950Z,941.19
2018-12-11T10:27:52.354Z,941.27
2018-12-11T10:28:53.047Z,941.22
2018-12-11T10:29:54.019Z,941.18
2018-12-11T10:30:54.262Z,941.23
2018-12-11T10:31:54.946Z,941.19
2018-12-11T10:32:56.613Z,941.19
2018-12-11T10:33:57.543Z,941.13
2018-12-11T10:34:59.353Z,941.12
2018-12-11T10:36:00.169Z,941.18
2018-12-11T10:37:02.587Z,941.21
2018-12-11T10:38:04.097Z,941.19
2018-12-11T10:39:04.775Z,941.16
2018-12-11T10:40:05.407Z,941.29
2018-12-11T10:41:06.700Z,941.32
2018-12-11T10:42:08.285Z,941.34
2018-12-11T10:43:10.631Z,941.32
2018-12-11T10:44:10.834Z,941.4
2018-12-11T10:45:11.467Z,941.34
2018-12-11T10:46:11.676Z,941.28
2018-12-11T10:47:12.776Z,941.35
2018-12-11T10:48:13.364Z,941.4
2018-12-11T10:49:14.061Z,941.4
2018-12-11T10:50:14.473Z,941.38
2018-12-11T10:51:14.882Z,941.47
2018-12-11T10:52:15.291Z,941.36
2018-12-11T10:53:15.698Z,941.35
2018-12-11T10:54:16.423Z,941.39
2018-12-11T10:55:16.695Z,941.35
2018-12-11T10:56:17.785Z,941.33
2018-12-11T10:57:18.306Z,941.34
2018-12-11T10:58:19.432Z,941.31
2018-12-11T10:59:20.119Z,941.31
2018-12-11T11:00:20.812Z,941.26
2018-12-11T11:01:21.227Z,941.25
2018-12-11T11:02:21.912Z,941.25
2018-12-11T11:03:22.097Z,941.21
2018-12-11T11:04:22.912Z,941.21
2018-12-11T11:05:23.780Z,941.19
2018-12-11T11:06:23.988Z,941.19
2018-12-11T11:07:25.122Z,941.16
2018-12-11T11:08:26.154Z,941.23
2018-12-11T11:09:26.416Z,941.16
2018-12-11T11:10:27.648Z,941.18
2018-12-11T11:11:28.660Z,941.12
2018-12-11T11:12:29.838Z,941.1
2018-12-11T11:13:29.984Z,941.06
2018-12-11T11:14:30.936Z,941.06
2018-12-11T11:15:31.583Z,941.08
2018-12-11T11:16:32.708Z,941.1
2018-12-11T11:17:33.841Z,941.1
2018-12-11T11:18:34.620Z,941.04
2018-12-11T11:19:35.580Z,941.06
2018-12-11T11:20:35.802Z,941.06
2018-12-11T11:21:36.493Z,941.11
2018-12-11T11:22:36.919Z,941.14
2018-12-11T11:23:37.570Z,941.15
2018-12-11T11:24:38.638Z,941.23
2018-12-11T11:25:39.159Z,941.2
2018-12-11T11:26:40.188Z,941.19
2018-12-11T11:27:41.161Z,941.2
2018-12-11T11:28:42.533Z,941.23
2018-12-11T11:29:43.479Z,941.18
2018-12-11T11:30:43.931Z,941.14
2018-12-11T11:31:44.625Z,941.18
2018-12-11T11:32:45.753Z,941.14
2018-12-11T11:33:47.442Z,941.01
2018-12-11T11:33:58.762Z,941
2018-12-11T11:34:58.997Z,940.98
2018-12-11T11:35:59.762Z,941.08
2018-12-11T11:37:00.447Z,941.07
2018-12-11T11:38:01.211Z,941.02
2018-12-11T11:39:01.639Z,941.05
2018-12-11T11:40:02.439Z,941.09
2018-12-11T11:41:02.984Z,941
2018-12-11T11:42:03.793Z,941.08
2018-12-11T11:43:04.240Z,941.1
2018-12-11T11:44:04.719Z,941.08
2018-12-11T11:45:04.833Z,941.07
2018-12-11T11:46:05.518Z,941.1
2018-12-11T11:47:06.214Z,941.06
2018-12-11T11:48:09.218Z,941.05
2018-12-11T11:48:19.649Z,941.09
2018-12-11T11:49:21.593Z,941.01
2018-12-11T11:50:22.858Z,941.05
2018-12-11T11:51:23.111Z,941.09
2018-12-11T11:52:24.157Z,941.04
2018-12-11T11:53:24.570Z,941.05
2018-12-11T11:54:24.992Z,941.06
2018-12-11T11:55:25.194Z,941.06
2018-12-11T11:56:25.433Z,941.02
2018-12-11T11:57:30.154Z,941.01
2018-12-11T11:58:31.121Z,940.99
2018-12-11T11:59:31.968Z,940.93
2018-12-11T12:00:32.286Z,940.89
2018-12-11T12:01:32.700Z,940.87
2018-12-11T12:02:33.843Z,940.87
2018-12-11T12:03:34.273Z,940.87
2018-12-11T12:04:35.265Z,940.88
2018-12-11T12:05:36.012Z,940.85
2018-12-11T12:06:37.038Z,940.8
2018-12-11T12:07:38.837Z,940.9
2018-12-11T12:08:39.100Z,940.83
2018-12-11T12:09:39.529Z,940.88
2018-12-11T12:10:41.796Z,940.93
2018-12-11T12:11:41.639Z,940.93
2018-12-11T12:12:41.963Z,940.97
2018-12-11T12:13:43.124Z,940.92
2018-12-11T12:14:50.317Z,940.89
2018-12-11T12:14:56.165Z,940.88
2018-12-11T12:15:56.278Z,940.87
2018-12-11T12:16:56.963Z,940.9
2018-12-11T12:17:57.371Z,940.88
2018-12-11T12:18:58.710Z,940.89
2018-12-11T12:19:59.862Z,940.88
2018-12-11T12:20:10.671Z,940.86
2018-12-11T12:21:12.533Z,940.78
2018-12-11T12:21:23.853Z,940.8
2018-12-11T12:22:23.902Z,940.8
2018-12-11T12:23:24.706Z,940.74
2018-12-11T12:24:25.392Z,940.77
2018-12-11T12:25:27.053Z,940.82
2018-12-11T12:25:38.898Z,940.85
2018-12-11T12:26:39.516Z,940.77
2018-12-11T12:27:39.907Z,940.76
2018-12-11T12:28:40.312Z,940.77
2018-12-11T12:29:41.444Z,940.74
2018-12-11T12:30:42.575Z,940.73
2018-12-11T12:31:44.122Z,940.77
2018-12-11T12:32:46.457Z,940.74
2018-12-11T12:33:46.684Z,940.67